TimeEST,TemperatureF,Dew PointF,Humidity,Sea Level PressureIn,VisibilityMPH,Wind Direction,Wind SpeedMPH,Gust SpeedMPH,PrecipitationIn,Events,Conditions,WindDirDegrees,DateUTC
12:43 AM,33.8,24.8,70,30.14,10.0,Calm,Calm,-,N/A,,Overcast,0,2012-11-06 05:43:00
12:54 AM,34.0,24.1,67,30.16,10.0,Calm,Calm,-,N/A,,Overcast,0,2012-11-06 05:54:00
1:54 AM,34.0,23.0,64,30.15,10.0,ENE,4.6,-,N/A,,Overcast,70,2012-11-06 06:54:00
2:54 AM,34.0,23.0,64,30.14,10.0,East,4.6,-,N/A,,Overcast,80,2012-11-06 07:54:00
3:54 AM,34.0,23.0,64,30.13,10.0,East,4.6,-,N/A,,Overcast,80,2012-11-06 08:54:00
4:54 AM,33.1,23.0,66,30.13,10.0,ENE,3.5,-,N/A,,Overcast,60,2012-11-06 09:54:00
5:54 AM,33.1,23.0,66,30.12,10.0,Calm,Calm,-,N/A,,Overcast,0,2012-11-06 10:54:00
6:54 AM,30.9,23.0,72,30.12,10.0,ENE,5.8,-,N/A,,Mostly Cloudy,70,2012-11-06 11:54:00
7:02 AM,30.2,23.0,75,30.09,10.0,NE,3.5,-,N/A,,Scattered Clouds,50,2012-11-06 12:02:00
7:54 AM,30.9,24.1,76,30.12,10.0,NE,3.5,-,N/A,,Clear,50,2012-11-06 12:54:00
8:54 AM,35.1,24.1,64,30.12,10.0,East,4.6,-,N/A,,Clear,80,2012-11-06 13:54:00
9:54 AM,36.0,24.1,62,30.11,10.0,ESE,6.9,-,N/A,,Clear,120,2012-11-06 14:54:00
10:54 AM,37.9,25.0,60,30.09,10.0,East,5.8,-,N/A,,Clear,90,2012-11-06 15:54:00
11:54 AM,41.0,25.0,53,30.08,10.0,NNE,4.6,-,N/A,,Clear,30,2012-11-06 16:54:00
12:54 PM,42.1,24.1,49,30.06,10.0,Calm,Calm,-,N/A,,Clear,0,2012-11-06 17:54:00
1:54 PM,43.0,25.0,49,30.02,10.0,ENE,5.8,-,N/A,,Clear,60,2012-11-06 18:54:00
2:54 PM,45.0,25.0,46,30.00,10.0,ENE,5.8,-,N/A,,Clear,70,2012-11-06 19:54:00
3:54 PM,44.1,25.0,47,29.99,10.0,ENE,4.6,-,N/A,,Clear,70,2012-11-06 20:54:00
4:54 PM,43.0,24.1,47,29.99,10.0,East,4.6,-,N/A,,Clear,90,2012-11-06 21:54:00
5:54 PM,39.0,25.0,57,29.99,10.0,Calm,Calm,-,N/A,,Clear,0,2012-11-06 22:54:00
6:54 PM,35.1,25.0,67,30.00,10.0,Calm,Calm,-,N/A,,Clear,0,2012-11-06 23:54:00
7:54 PM,33.1,25.0,72,30.00,10.0,Calm,Calm,-,N/A,,Clear,0,2012-11-07 00:54:00
8:54 PM,32.0,25.0,75,29.99,10.0,Calm,Calm,-,N/A,,Clear,0,2012-11-07 01:54:00
9:54 PM,30.0,24.1,79,29.99,10.0,Calm,Calm,-,N/A,,Clear,0,2012-11-07 02:54:00
10:54 PM,30.0,24.1,79,29.97,10.0,Calm,Calm,-,N/A,,Clear,0,2012-11-07 03:54:00
11:54 PM,30.0,24.1,79,29.96,10.0,ENE,3.5,-,N/A,,Clear,70,2012-11-07 04:54:00